Hamiter, Arkansas
Current Conditions -  °F | °C
As of 6:53 PM on Thursday 18 Dec 2014 (Local Time) from KLIT Reporting Station
Haze Haze  
Wind Chill: 38°   Ceiling: 600
Heat Index: 42°   Visibility: 4mi
Dew Point: 39°   Wind: 7mph
Humidity: 89%   Direction: 80°E
Pressure: 30.22"   Gusts: NA
Location:  34.7054°N, 92.1029°W
Report Text: KLIT 190053Z 08006KT 4SM BR OVC006 06/04 A3022 RMK AO2 SLP236 T00560039
Loading
Personal Weather Stations






























Interactive Weather Map New forecast layout! Learn more

10-Day Weather Forecast

Advertisements
Track Severe Weather on mobile